Time;durP1;ratioP1;P1;durP2;ratioP2;P2;SDS_P1;SDS_P2;PMS_P1;PMS_P2;Temp;Humidity;BMP_temperature;BMP_pressure;BME280_temperature;BME280_humidity;BME280_pressure;Samples;Min_cycle;Max_cycle;Signal;HPM_P1;HPM_P2
2023/07/30 00:01:02;;;;;;;6.22;5.72;;;;;;;;;;5098109;28;20059;-83
2023/07/30 00:03:29;;;;;;;10.40;6.43;;;;;;;;;;5098016;28;20130;-84
2023/07/30 00:05:56;;;;;;;8.38;5.82;;;;;;;;;;5116310;28;20464;-84
2023/07/30 00:08:24;;;;;;;8.23;5.57;;;;;;;;;;5097209;28;20430;-84
2023/07/30 00:10:51;;;;;;;12.45;6.88;;;;;;;;;;5097471;28;20044;-83
2023/07/30 00:13:18;;;;;;;9.73;6.07;;;;;;;;;;5115570;28;20119;-84
2023/07/30 00:15:47;;;;;;;10.68;6.40;;;;;;;;;;5115504;28;20047;-83
2023/07/30 00:18:14;;;;;;;8.25;6.07;;;;;;;;;;5115219;28;20070;-83
2023/07/30 00:20:42;;;;;;;7.90;5.88;;;;;;;;;;5118041;28;20480;-84
2023/07/30 00:23:09;;;;;;;11.13;5.40;;;;;;;;;;5100330;28;20077;-83
2023/07/30 00:25:37;;;;;;;6.43;5.75;;;;;;;;;;5098467;28;20082;-83
2023/07/30 00:28:04;;;;;;;6.72;5.40;;;;;;;;;;5098792;28;20092;-82
2023/07/30 00:30:31;;;;;;;8.95;5.53;;;;;;;;;;5098040;28;20078;-83
2023/07/30 00:32:58;;;;;;;10.02;5.03;;;;;;;;;;5116280;28;20499;-83
2023/07/30 00:35:26;;;;;;;13.40;5.32;;;;;;;;;;5098304;28;20460;-84
2023/07/30 00:37:53;;;;;;;7.70;5.43;;;;;;;;;;5116275;28;20568;-84
2023/07/30 00:40:20;;;;;;;5.00;4.60;;;;;;;;;;5098394;28;20500;-83
2023/07/30 00:42:47;;;;;;;11.18;5.32;;;;;;;;;;5116109;28;20064;-83
2023/07/30 00:45:15;;;;;;;6.00;5.43;;;;;;;;;;5098084;28;20549;-84
2023/07/30 00:47:42;;;;;;;9.48;5.82;;;;;;;;;;5097534;28;20056;-84
2023/07/30 00:50:10;;;;;;;8.02;5.80;;;;;;;;;;5115599;28;20413;-83
2023/07/30 00:52:37;;;;;;;9.85;7.00;;;;;;;;;;5115291;28;20043;-83
2023/07/30 00:55:05;;;;;;;10.70;7.40;;;;;;;;;;5097090;28;20043;-84
2023/07/30 00:57:32;;;;;;;9.60;6.82;;;;;;;;;;5096696;28;20100;-83
2023/07/30 01:00:02;;;;;;;9.30;6.18;;;;;;;;;;5096749;28;20040;-83
2023/07/30 01:02:30;;;;;;;11.93;6.25;;;;;;;;;;5114614;28;20039;-82
2023/07/30 01:04:57;;;;;;;8.05;6.50;;;;;;;;;;5114474;28;20054;-82
2023/07/30 01:07:24;;;;;;;10.80;6.45;;;;;;;;;;5096229;28;20116;-82
2023/07/30 01:09:52;;;;;;;14.38;7.40;;;;;;;;;;5114774;28;20051;-82
2023/07/30 01:12:19;;;;;;;11.80;8.93;;;;;;;;;;5096157;28;20040;-83
2023/07/30 01:14:47;;;;;;;15.93;11.63;;;;;;;;;;5114216;28;20047;-83
2023/07/30 01:17:14;;;;;;;13.45;9.95;;;;;;;;;;5113531;28;20040;-82
2023/07/30 01:19:42;;;;;;;12.68;8.40;;;;;;;;;;5095789;28;20048;-83
2023/07/30 01:22:09;;;;;;;19.83;9.70;;;;;;;;;;5095790;28;20073;-83
2023/07/30 01:24:36;;;;;;;9.07;8.15;;;;;;;;;;5095859;28;20105;-83
2023/07/30 01:27:06;;;;;;;8.30;6.85;;;;;;;;;;5095278;28;20051;-83
2023/07/30 01:29:38;;;;;;;8.50;7.07;;;;;;;;;;5095379;28;20100;-84
2023/07/30 01:32:07;;;;;;;8.43;6.57;;;;;;;;;;5113377;28;20556;-82
2023/07/30 01:34:36;;;;;;;7.95;6.38;;;;;;;;;;5095388;28;20281;-84
2023/07/30 01:37:03;;;;;;;12.73;6.75;;;;;;;;;;5095631;28;20489;-84
2023/07/30 01:39:31;;;;;;;11.88;7.10;;;;;;;;;;5098533;28;20040;-84
2023/07/30 01:41:58;;;;;;;8.60;7.00;;;;;;;;;;5097840;28;20047;-83
2023/07/30 01:44:26;;;;;;;14.50;7.78;;;;;;;;;;5098184;28;20047;-84
2023/07/30 01:46:53;;;;;;;11.05;6.78;;;;;;;;;;5097680;28;20109;-84
2023/07/30 01:49:20;;;;;;;9.02;7.47;;;;;;;;;;5115638;28;20092;-84
2023/07/30 01:51:47;;;;;;;13.75;8.38;;;;;;;;;;5097340;28;20051;-82
2023/07/30 01:54:15;;;;;;;12.73;7.78;;;;;;;;;;5097631;28;20051;-84
2023/07/30 01:56:42;;;;;;;9.50;6.50;;;;;;;;;;5098061;28;20051;-83
2023/07/30 01:59:09;;;;;;;14.80;8.10;;;;;;;;;;5099183;28;20089;-83
2023/07/30 02:01:36;;;;;;;10.07;6.20;;;;;;;;;;5098459;28;20499;-84
2023/07/30 02:04:04;;;;;;;14.30;6.65;;;;;;;;;;5116104;28;20049;-83
2023/07/30 02:06:31;;;;;;;13.82;7.20;;;;;;;;;;5115734;28;20048;-84
2023/07/30 02:08:59;;;;;;;13.52;8.10;;;;;;;;;;5096442;28;20071;-84
2023/07/30 02:11:26;;;;;;;10.45;6.82;;;;;;;;;;5114303;28;20127;-84
2023/07/30 02:13:53;;;;;;;9.93;6.60;;;;;;;;;;5114378;28;20095;-84
2023/07/30 02:16:21;;;;;;;8.50;6.57;;;;;;;;;;5096389;28;20468;-84
2023/07/30 02:18:48;;;;;;;9.38;6.13;;;;;;;;;;5096062;28;20051;-83
2023/07/30 02:21:15;;;;;;;8.30;5.75;;;;;;;;;;5113699;28;20097;-83
2023/07/30 02:23:43;;;;;;;10.35;6.18;;;;;;;;;;5095575;28;20578;-84
2023/07/30 02:26:10;;;;;;;13.60;6.85;;;;;;;;;;5113832;28;20052;-84
2023/07/30 02:28:37;;;;;;;14.50;6.85;;;;;;;;;;5113587;28;20052;-84
2023/07/30 02:31:05;;;;;;;10.27;6.63;;;;;;;;;;5113413;28;20047;-84
2023/07/30 02:33:32;;;;;;;10.25;5.88;;;;;;;;;;5095779;28;20126;-83
2023/07/30 02:35:59;;;;;;;16.25;7.18;;;;;;;;;;5114269;28;20415;-83
2023/07/30 02:38:26;;;;;;;9.60;6.60;;;;;;;;;;5095331;28;20129;-83
2023/07/30 02:40:54;;;;;;;9.82;6.15;;;;;;;;;;5095753;28;20052;-82
2023/07/30 02:43:21;;;;;;;11.82;5.82;;;;;;;;;;5095969;28;20074;-83
2023/07/30 02:45:48;;;;;;;8.02;6.13;;;;;;;;;;5095616;28;20130;-82
2023/07/30 02:48:16;;;;;;;7.80;6.07;;;;;;;;;;5098240;28;20130;-83
2023/07/30 02:50:44;;;;;;;8.10;5.72;;;;;;;;;;5097660;28;20157;-81
2023/07/30 02:53:11;;;;;;;8.63;6.28;;;;;;;;;;5098003;28;20040;-83
2023/07/30 02:55:38;;;;;;;8.20;6.28;;;;;;;;;;5115653;28;20469;-82
2023/07/30 02:58:05;;;;;;;7.55;6.10;;;;;;;;;;5097909;28;20044;-82
2023/07/30 03:00:33;;;;;;;7.05;5.70;;;;;;;;;;5097683;28;20047;-82
2023/07/30 03:03:00;;;;;;;8.52;5.80;;;;;;;;;;5097834;28;20465;-83
2023/07/30 03:05:27;;;;;;;7.93;6.25;;;;;;;;;;5115312;28;20397;-82
2023/07/30 03:07:55;;;;;;;9.82;7.03;;;;;;;;;;5097453;28;20091;-81
2023/07/30 03:10:22;;;;;;;13.00;6.63;;;;;;;;;;5097479;28;20483;-82
2023/07/30 03:12:49;;;;;;;10.38;5.47;;;;;;;;;;5097151;28;20047;-83
2023/07/30 03:15:16;;;;;;;6.78;5.10;;;;;;;;;;5097423;28;20086;-82
2023/07/30 03:17:43;;;;;;;10.82;5.57;;;;;;;;;;5115228;28;20147;-83
2023/07/30 03:20:11;;;;;;;9.98;6.30;;;;;;;;;;5097193;28;20150;-82
2023/07/30 03:22:38;;;;;;;6.03;5.30;;;;;;;;;;5114869;28;20495;-83
2023/07/30 03:25:05;;;;;;;5.63;5.10;;;;;;;;;;5097039;28;20516;-83
2023/07/30 03:27:33;;;;;;;6.60;4.80;;;;;;;;;;5096817;28;20047;-82
2023/07/30 03:30:00;;;;;;;5.35;4.82;;;;;;;;;;5097501;28;20104;-82
2023/07/30 03:32:27;;;;;;;7.45;5.70;;;;;;;;;;5099596;28;20043;-82
2023/07/30 03:34:54;;;;;;;5.32;4.53;;;;;;;;;;5101823;28;20051;-83
2023/07/30 03:37:22;;;;;;;9.45;4.50;;;;;;;;;;5100927;28;20044;-84
2023/07/30 03:39:49;;;;;;;8.73;4.55;;;;;;;;;;5117534;28;20122;-83
2023/07/30 03:42:16;;;;;;;12.77;4.93;;;;;;;;;;5117921;28;20587;-84
2023/07/30 03:44:44;;;;;;;4.85;4.45;;;;;;;;;;5118272;28;20104;-83
2023/07/30 03:47:11;;;;;;;8.10;4.25;;;;;;;;;;5099223;28;20469;-83
2023/07/30 03:49:38;;;;;;;6.72;5.45;;;;;;;;;;5099001;28;20097;-83
2023/07/30 03:52:05;;;;;;;10.68;5.72;;;;;;;;;;5099054;28;20078;-84
2023/07/30 03:54:33;;;;;;;8.77;5.22;;;;;;;;;;5117171;28;20415;-83
2023/07/30 03:57:00;;;;;;;11.88;5.53;;;;;;;;;;5097599;28;20048;-83
2023/07/30 03:59:28;;;;;;;8.63;5.72;;;;;;;;;;5097143;28;20047;-83
2023/07/30 04:01:55;;;;;;;8.10;4.63;;;;;;;;;;5097680;28;20400;-84
2023/07/30 04:04:22;;;;;;;5.65;5.07;;;;;;;;;;5097688;28;20051;-82
2023/07/30 04:06:50;;;;;;;5.32;4.88;;;;;;;;;;5097387;28;20047;-83
2023/07/30 04:09:17;;;;;;;7.82;5.55;;;;;;;;;;5100028;28;20052;-83
2023/07/30 04:11:44;;;;;;;8.45;5.60;;;;;;;;;;5117442;28;20047;-84
2023/07/30 04:14:11;;;;;;;14.93;7.07;;;;;;;;;;5098911;28;20136;-83
2023/07/30 04:16:39;;;;;;;14.32;6.93;;;;;;;;;;5116314;28;20112;-83
2023/07/30 04:19:06;;;;;;;9.77;5.15;;;;;;;;;;5098317;28;20047;-84
2023/07/30 04:21:33;;;;;;;16.08;7.68;;;;;;;;;;5116450;28;20066;-84
2023/07/30 04:24:01;;;;;;;12.90;7.95;;;;;;;;;;5098450;28;20093;-84
2023/07/30 04:26:28;;;;;;;10.57;5.55;;;;;;;;;;5097417;28;20104;-84
2023/07/30 04:28:55;;;;;;;12.45;7.63;;;;;;;;;;5116031;28;20407;-84
2023/07/30 04:31:22;;;;;;;9.10;5.45;;;;;;;;;;5096856;28;20112;-85
2023/07/30 04:33:49;;;;;;;10.63;6.65;;;;;;;;;;5115693;28;20072;-84
2023/07/30 04:36:17;;;;;;;6.90;5.78;;;;;;;;;;5097572;28;20048;-85
2023/07/30 04:38:44;;;;;;;9.70;6.50;;;;;;;;;;5097283;28;20048;-84
2023/07/30 04:41:11;;;;;;;4.75;4.30;;;;;;;;;;5097114;28;20415;-84
2023/07/30 04:43:38;;;;;;;7.93;5.70;;;;;;;;;;5115302;28;20085;-83
2023/07/30 04:46:05;;;;;;;6.93;6.28;;;;;;;;;;5097108;28;20051;-83
2023/07/30 04:48:33;;;;;;;8.10;5.03;;;;;;;;;;5114925;28;20058;-83
2023/07/30 04:51:00;;;;;;;10.75;6.90;;;;;;;;;;5096884;28;20048;-83
2023/07/30 04:53:27;;;;;;;8.50;4.95;;;;;;;;;;5096636;28;20066;-83
2023/07/30 04:55:58;;;;;;;6.57;4.85;;;;;;;;;;5096600;28;20097;-84
2023/07/30 04:58:25;;;;;;;5.45;4.82;;;;;;;;;;5096258;28;20105;-83
2023/07/30 05:00:52;;;;;;;11.13;6.53;;;;;;;;;;5096904;28;20047;-83
2023/07/30 05:03:20;;;;;;;7.75;6.35;;;;;;;;;;5096467;28;20047;-83
2023/07/30 05:05:47;;;;;;;10.10;9.10;;;;;;;;;;5096090;28;20055;-83
2023/07/30 05:08:14;;;;;;;10.32;9.43;;;;;;;;;;5097444;28;20043;-82
2023/07/30 05:10:41;;;;;;;9.10;6.97;;;;;;;;;;5098505;28;20415;-83
2023/07/30 05:13:09;;;;;;;8.68;7.88;;;;;;;;;;5116497;28;20268;-83
2023/07/30 05:15:36;;;;;;;8.30;7.40;;;;;;;;;;5097781;28;20050;-84
2023/07/30 05:18:03;;;;;;;6.72;5.97;;;;;;;;;;5116081;28;20048;-82
2023/07/30 05:20:30;;;;;;;6.78;5.93;;;;;;;;;;5097407;28;20044;-83
2023/07/30 05:22:58;;;;;;;6.25;5.70;;;;;;;;;;5097114;28;20113;-82
2023/07/30 05:25:25;;;;;;;9.32;5.88;;;;;;;;;;5097136;28;20417;-84
2023/07/30 05:27:52;;;;;;;7.07;5.72;;;;;;;;;;5114813;28;20051;-83
2023/07/30 05:30:19;;;;;;;5.30;4.88;;;;;;;;;;5096793;28;20109;-83
2023/07/30 05:32:47;;;;;;;6.82;5.43;;;;;;;;;;5114165;28;20048;-83
2023/07/30 05:35:14;;;;;;;6.97;4.50;;;;;;;;;;5095653;28;20470;-83
2023/07/30 05:37:41;;;;;;;4.88;4.05;;;;;;;;;;5095199;28;20100;-83
2023/07/30 05:40:09;;;;;;;5.68;5.13;;;;;;;;;;5095359;28;20466;-83
2023/07/30 05:42:36;;;;;;;9.50;4.50;;;;;;;;;;5095351;28;20400;-83
2023/07/30 05:45:03;;;;;;;4.97;4.35;;;;;;;;;;5113582;28;20047;-83
2023/07/30 05:47:30;;;;;;;5.43;4.07;;;;;;;;;;5113087;28;20485;-83
2023/07/30 05:49:58;;;;;;;5.55;5.15;;;;;;;;;;5094692;28;20044;-82
2023/07/30 05:52:25;;;;;;;6.65;4.15;;;;;;;;;;5094742;28;20048;-82
2023/07/30 05:54:52;;;;;;;8.13;3.83;;;;;;;;;;5113031;28;20047;-82
2023/07/30 05:57:19;;;;;;;3.78;3.45;;;;;;;;;;5095020;28;20419;-83
2023/07/30 05:59:46;;;;;;;6.28;3.70;;;;;;;;;;5094792;28;20048;-82
2023/07/30 06:02:14;;;;;;;6.22;3.17;;;;;;;;;;5112696;28;20044;-82
2023/07/30 06:04:41;;;;;;;8.57;3.47;;;;;;;;;;5094619;28;20100;-82
2023/07/30 06:07:08;;;;;;;7.68;3.20;;;;;;;;;;5094252;28;20190;-82
2023/07/30 06:09:35;;;;;;;5.97;3.05;;;;;;;;;;5094499;28;20047;-83
2023/07/30 06:12:03;;;;;;;6.15;2.75;;;;;;;;;;5094360;28;20047;-82
2023/07/30 06:14:30;;;;;;;3.03;2.53;;;;;;;;;;5094382;28;20055;-82
2023/07/30 06:16:57;;;;;;;6.03;2.83;;;;;;;;;;5094491;28;20086;-83
2023/07/30 06:19:26;;;;;;;6.40;2.50;;;;;;;;;;5094272;28;20055;-81
2023/07/30 06:21:53;;;;;;;8.48;2.70;;;;;;;;;;5095671;28;20347;-81
2023/07/30 06:24:20;;;;;;;3.53;1.92;;;;;;;;;;5116501;28;20048;-81
2023/07/30 06:26:48;;;;;;;5.80;2.28;;;;;;;;;;5098214;28;20047;-82
2023/07/30 06:29:15;;;;;;;7.82;3.00;;;;;;;;;;5116499;28;20571;-81
2023/07/30 06:31:42;;;;;;;8.98;2.40;;;;;;;;;;5116658;28;20055;-82
2023/07/30 06:34:10;;;;;;;4.53;2.35;;;;;;;;;;5098745;28;20537;-82
2023/07/30 06:36:37;;;;;;;4.35;2.08;;;;;;;;;;5098228;28;20085;-84
2023/07/30 06:39:04;;;;;;;5.78;2.25;;;;;;;;;;5098879;28;20508;-82
2023/07/30 06:41:31;;;;;;;2.97;2.50;;;;;;;;;;5098871;28;20495;-82
2023/07/30 06:43:58;;;;;;;4.90;2.70;;;;;;;;;;5116682;28;20100;-84
2023/07/30 06:46:26;;;;;;;5.55;2.60;;;;;;;;;;5100996;28;20044;-84
2023/07/30 06:48:53;;;;;;;3.75;2.40;;;;;;;;;;5118127;28;20083;-83
2023/07/30 06:51:20;;;;;;;4.13;2.10;;;;;;;;;;5099948;28;20047;-83
2023/07/30 06:53:48;;;;;;;8.18;2.63;;;;;;;;;;5117264;28;20083;-83
2023/07/30 06:56:15;;;;;;;10.45;2.33;;;;;;;;;;5099936;28;20050;-84
2023/07/30 06:58:42;;;;;;;3.60;1.67;;;;;;;;;;5099844;28;20051;-83
2023/07/30 07:01:09;;;;;;;4.70;2.42;;;;;;;;;;5117397;28;20051;-82
2023/07/30 07:03:37;;;;;;;4.05;2.00;;;;;;;;;;5117107;28;20105;-83
2023/07/30 07:06:04;;;;;;;3.28;2.05;;;;;;;;;;5116635;28;20047;-82
2023/07/30 07:08:32;;;;;;;6.25;2.17;;;;;;;;;;5098698;28;20495;-83
2023/07/30 07:10:59;;;;;;;3.05;1.73;;;;;;;;;;5098907;28;20047;-81
2023/07/30 07:13:26;;;;;;;5.35;1.60;;;;;;;;;;5098705;28;20120;-81
2023/07/30 07:15:53;;;;;;;2.88;1.48;;;;;;;;;;5098052;28;20047;-81
2023/07/30 07:18:21;;;;;;;2.17;1.45;;;;;;;;;;5097946;28;20047;-80
2023/07/30 07:20:48;;;;;;;3.13;1.02;;;;;;;;;;5098997;28;20134;-82
2023/07/30 07:23:15;;;;;;;2.15;0.90;;;;;;;;;;5098047;28;20059;-80
2023/07/30 07:25:44;;;;;;;3.15;1.00;;;;;;;;;;5116377;28;20081;-80
2023/07/30 07:28:11;;;;;;;0.90;0.90;;;;;;;;;;5116139;28;20457;-80
2023/07/30 07:30:38;;;;;;;2.78;0.85;;;;;;;;;;5097529;28;20523;-82
2023/07/30 07:33:06;;;;;;;2.75;0.90;;;;;;;;;;5097349;28;20066;-82
2023/07/30 07:35:33;;;;;;;0.93;0.80;;;;;;;;;;5098295;28;20044;-80
2023/07/30 07:38:00;;;;;;;1.02;0.93;;;;;;;;;;5098556;28;20047;-81
2023/07/30 07:40:28;;;;;;;0.77;0.77;;;;;;;;;;5097845;28;20583;-80
2023/07/30 07:42:55;;;;;;;0.60;0.60;;;;;;;;;;5099275;28;20116;-80
2023/07/30 07:45:23;;;;;;;0.65;0.65;;;;;;;;;;5097926;28;20048;-81
2023/07/30 07:47:50;;;;;;;1.25;0.93;;;;;;;;;;5115660;28;20055;-81
2023/07/30 07:50:17;;;;;;;0.70;0.70;;;;;;;;;;5116784;28;20059;-80
2023/07/30 07:52:45;;;;;;;2.05;0.68;;;;;;;;;;5115912;28;20040;-81
2023/07/30 07:55:12;;;;;;;1.42;0.50;;;;;;;;;;5097126;28;20052;-81
2023/07/30 07:57:39;;;;;;;1.77;0.70;;;;;;;;;;5096790;28;20052;-80
2023/07/30 08:00:07;;;;;;;0.50;0.50;;;;;;;;;;5097498;28;20101;-80
2023/07/30 08:02:34;;;;;;;0.88;0.75;;;;;;;;;;5097273;28;20048;-82
2023/07/30 08:05:03;;;;;;;1.83;0.80;;;;;;;;;;5115769;28;20416;-81
2023/07/30 08:07:30;;;;;;;0.50;0.50;;;;;;;;;;5096909;28;20404;-81
2023/07/30 08:09:57;;;;;;;1.38;0.47;;;;;;;;;;5097490;28;20059;-80
2023/07/30 08:12:25;;;;;;;0.60;0.60;;;;;;;;;;5115337;28;20071;-80
2023/07/30 08:14:52;;;;;;;2.47;0.60;;;;;;;;;;5097063;28;20047;-78
2023/07/30 08:17:20;;;;;;;8.32;6.03;;;;;;;;;;5096857;28;20052;-79
2023/07/30 08:19:48;;;;;;;13.35;11.95;;;;;;;;;;5114886;28;20096;-78
2023/07/30 08:22:15;;;;;;;2.30;2.17;;;;;;;;;;5117198;28;20457;-81
2023/07/30 08:24:42;;;;;;;9.68;8.75;;;;;;;;;;5117268;28;20047;-81
2023/07/30 08:27:09;;;;;;;8.48;7.78;;;;;;;;;;5117446;28;20048;-81
2023/07/30 08:29:36;;;;;;;10.00;9.10;;;;;;;;;;5098237;28;20507;-81
2023/07/30 08:32:05;;;;;;;5.60;5.10;;;;;;;;;;5099116;28;20048;-80
2023/07/30 08:34:33;;;;;;;4.93;2.05;;;;;;;;;;5116031;28;20051;-80
2023/07/30 08:37:00;;;;;;;2.38;2.17;;;;;;;;;;5115731;28;20050;-78
2023/07/30 08:39:28;;;;;;;3.05;1.85;;;;;;;;;;5097564;28;20104;-81
2023/07/30 08:41:55;;;;;;;2.65;2.47;;;;;;;;;;5097853;28;20044;-80
2023/07/30 08:44:22;;;;;;;2.25;2.15;;;;;;;;;;5097325;28;20051;-80
2023/07/30 08:46:49;;;;;;;0.93;0.50;;;;;;;;;;5116390;28;20056;-80
2023/07/30 08:49:19;;;;;;;1.95;1.88;;;;;;;;;;5116681;28;20051;-77
2023/07/30 08:51:49;;;;;;;2.00;1.90;;;;;;;;;;5115661;28;20499;-80
2023/07/30 08:54:17;;;;;;;0.60;0.60;;;;;;;;;;5097350;28;20105;-82
2023/07/30 08:56:44;;;;;;;5.72;5.22;;;;;;;;;;5097440;28;20101;-79
2023/07/30 08:59:11;;;;;;;1.35;1.25;;;;;;;;;;5100424;28;20043;-80
2023/07/30 09:01:40;;;;;;;0.85;0.45;;;;;;;;;;5123076;28;20047;-80
2023/07/30 09:04:08;;;;;;;1.48;0.30;;;;;;;;;;5104016;28;20187;-81
2023/07/30 09:06:36;;;;;;;1.65;0.30;;;;;;;;;;5099484;28;20047;-80
2023/07/30 09:09:03;;;;;;;2.15;0.73;;;;;;;;;;5116744;28;20465;-80
2023/07/30 09:11:30;;;;;;;0.43;0.40;;;;;;;;;;5098799;28;20047;-81
2023/07/30 09:13:58;;;;;;;0.30;0.30;;;;;;;;;;5116576;28;20039;-81
2023/07/30 09:16:26;;;;;;;0.28;0.28;;;;;;;;;;5098060;28;20051;-81
2023/07/30 09:18:54;;;;;;;0.50;0.50;;;;;;;;;;5116392;28;20051;-80
2023/07/30 09:21:30;;;;;;;1.55;0.30;;;;;;;;;;5097982;28;20039;-81
2023/07/30 09:23:58;;;;;;;1.90;0.30;;;;;;;;;;5115538;28;20054;-80
2023/07/30 09:26:25;;;;;;;1.38;0.30;;;;;;;;;;5115119;28;20097;-81
2023/07/30 09:28:52;;;;;;;0.30;0.30;;;;;;;;;;5097579;28;20048;-80
2023/07/30 09:31:19;;;;;;;0.70;0.70;;;;;;;;;;5115478;28;20043;-81
2023/07/30 09:34:02;;;;;;;1.90;0.37;;;;;;;;;;5116040;28;20039;-81
2023/07/30 09:36:31;;;;;;;0.77;0.30;;;;;;;;;;5100959;28;20419;-80
2023/07/30 09:38:58;;;;;;;0.43;0.40;;;;;;;;;;5121978;28;20104;-81
2023/07/30 09:41:26;;;;;;;0.35;0.35;;;;;;;;;;5118393;28;20069;-81
2023/07/30 09:43:58;;;;;;;1.08;0.35;;;;;;;;;;5097959;28;20116;-82
2023/07/30 09:46:30;;;;;;;1.40;0.47;;;;;;;;;;5097779;28;20047;-79
2023/07/30 09:48:58;;;;;;;2.40;0.77;;;;;;;;;;5099340;28;20088;-80
2023/07/30 09:51:25;;;;;;;0.57;0.40;;;;;;;;;;5098410;28;20073;-81
2023/07/30 09:53:53;;;;;;;0.32;0.32;;;;;;;;;;5116735;28;20130;-81
2023/07/30 09:56:20;;;;;;;0.73;0.30;;;;;;;;;;5098041;28;20051;-80
2023/07/30 09:58:47;;;;;;;0.77;0.43;;;;;;;;;;5116662;28;20090;-81
2023/07/30 10:01:14;;;;;;;0.50;0.40;;;;;;;;;;5100020;28;20051;-83
2023/07/30 10:03:42;;;;;;;2.17;0.40;;;;;;;;;;5117268;28;20446;-81
2023/07/30 10:06:12;;;;;;;0.60;0.32;;;;;;;;;;5098926;28;20100;-82
2023/07/30 10:08:40;;;;;;;2.45;0.50;;;;;;;;;;5098368;28;20058;-80
2023/07/30 10:11:09;;;;;;;2.15;0.70;;;;;;;;;;5097724;28;20547;-80
2023/07/30 10:13:37;;;;;;;0.80;0.40;;;;;;;;;;5115733;28;20044;-81
2023/07/30 10:16:09;;;;;;;3.03;0.50;;;;;;;;;;5098040;28;20040;-81
2023/07/30 10:18:40;;;;;;;1.50;0.70;;;;;;;;;;5097763;28;20515;-79
2023/07/30 10:21:11;;;;;;;0.40;0.40;;;;;;;;;;5098535;28;20051;-80
2023/07/30 10:23:58;;;;;;;2.97;0.57;;;;;;;;;;5116006;28;20108;-84
2023/07/30 10:26:33;;;;;;;0.35;0.35;;;;;;;;;;5098192;28;20051;-80
2023/07/30 10:29:12;;;;;;;2.65;0.40;;;;;;;;;;5116346;28;20108;-80
2023/07/30 10:31:41;;;;;;;0.32;0.32;;;;;;;;;;5097363;28;20071;-79
2023/07/30 10:34:09;;;;;;;1.40;0.30;;;;;;;;;;5117992;28;20044;-83
2023/07/30 10:36:47;;;;;;;0.40;0.40;;;;;;;;;;5099065;28;20044;-80
2023/07/30 10:39:22;;;;;;;1.00;0.30;;;;;;;;;;5099357;28;20048;-80
2023/07/30 10:41:51;;;;;;;0.80;0.30;;;;;;;;;;5098373;28;20473;-81
2023/07/30 10:44:27;;;;;;;0.60;0.60;;;;;;;;;;5115350;28;20492;-81
2023/07/30 10:46:55;;;;;;;0.63;0.38;;;;;;;;;;5120964;28;20059;-80
2023/07/30 10:49:23;;;;;;;0.30;0.30;;;;;;;;;;5100264;28;20069;-80
2023/07/30 10:51:54;;;;;;;0.80;0.60;;;;;;;;;;5117443;28;20060;-81
2023/07/30 10:54:22;;;;;;;0.40;0.40;;;;;;;;;;5116655;28;20067;-80
2023/07/30 10:56:49;;;;;;;0.63;0.30;;;;;;;;;;5115998;28;20048;-79
2023/07/30 10:59:16;;;;;;;0.40;0.40;;;;;;;;;;5098975;28;20052;-79
2023/07/30 11:01:45;;;;;;;0.50;0.40;;;;;;;;;;5097441;28;20040;-80
2023/07/30 11:04:18;;;;;;;1.23;0.40;;;;;;;;;;5097587;28;20079;-81
2023/07/30 11:06:47;;;;;;;3.03;0.50;;;;;;;;;;5114805;28;20054;-78
2023/07/30 11:09:27;;;;;;;0.55;0.50;;;;;;;;;;5100698;28;20392;-82
2023/07/30 11:11:56;;;;;;;1.60;0.40;;;;;;;;;;5119410;28;20055;-83
2023/07/30 11:14:25;;;;;;;1.60;0.57;;;;;;;;;;5100767;28;20047;-79
2023/07/30 11:16:59;;;;;;;0.35;0.30;;;;;;;;;;5099859;28;20510;-79
2023/07/30 11:19:28;;;;;;;0.77;0.43;;;;;;;;;;5099817;28;20055;-80
2023/07/30 11:21:56;;;;;;;0.82;0.38;;;;;;;;;;5099346;28;20047;-78
2023/07/30 11:24:37;;;;;;;0.30;0.30;;;;;;;;;;5099227;28;20104;-79
2023/07/30 11:27:04;;;;;;;0.50;0.50;;;;;;;;;;5099070;28;20087;-80
2023/07/30 11:29:32;;;;;;;0.40;0.40;;;;;;;;;;5099583;28;20055;-81
2023/07/30 11:32:02;;;;;;;2.80;0.50;;;;;;;;;;5099664;28;20047;-79
2023/07/30 11:34:30;;;;;;;1.05;0.50;;;;;;;;;;5116934;28;20066;-78
2023/07/30 11:37:01;;;;;;;0.85;0.63;;;;;;;;;;5101031;28;20039;-78
2023/07/30 11:39:28;;;;;;;0.77;0.52;;;;;;;;;;5101914;28;20101;-80
2023/07/30 11:41:55;;;;;;;1.20;0.40;;;;;;;;;;5101276;28;20043;-80
2023/07/30 11:44:33;;;;;;;0.55;0.55;;;;;;;;;;5101394;28;20048;-79
2023/07/30 11:47:00;;;;;;;0.30;0.30;;;;;;;;;;5099843;28;20139;-81
2023/07/30 11:49:27;;;;;;;0.68;0.68;;;;;;;;;;5122453;28;20051;-77
2023/07/30 11:52:10;;;;;;;1.80;0.70;;;;;;;;;;5103471;28;20048;-80
2023/07/30 11:54:38;;;;;;;0.40;0.40;;;;;;;;;;5103292;28;20103;-81
2023/07/30 11:57:05;;;;;;;2.30;0.40;;;;;;;;;;5101154;28;20097;-81
2023/07/30 11:59:32;;;;;;;3.40;0.70;;;;;;;;;;5118587;28;20047;-82
2023/07/30 12:02:00;;;;;;;0.45;0.40;;;;;;;;;;5100915;28;20070;-84
2023/07/30 12:04:31;;;;;;;0.80;0.60;;;;;;;;;;5100269;28;20059;-83
2023/07/30 12:06:58;;;;;;;1.77;0.60;;;;;;;;;;5099304;28;20393;-85
2023/07/30 12:09:25;;;;;;;1.35;0.70;;;;;;;;;;5100396;28;20091;-81
2023/07/30 12:11:53;;;;;;;0.52;0.50;;;;;;;;;;5098226;28;20564;-83
2023/07/30 12:14:25;;;;;;;2.35;0.60;;;;;;;;;;5098081;28;20124;-83
2023/07/30 12:16:52;;;;;;;1.38;0.68;;;;;;;;;;5117452;28;20062;-83
2023/07/30 12:19:19;;;;;;;2.10;0.50;;;;;;;;;;5097845;28;20044;-83
2023/07/30 12:21:47;;;;;;;0.60;0.60;;;;;;;;;;5099502;28;20109;-84
2023/07/30 12:24:14;;;;;;;4.13;0.93;;;;;;;;;;5097250;28;20055;-83
2023/07/30 12:26:41;;;;;;;2.03;0.50;;;;;;;;;;5114823;28;20059;-83
2023/07/30 12:29:08;;;;;;;0.77;0.52;;;;;;;;;;5097661;28;20055;-83
2023/07/30 12:31:36;;;;;;;0.68;0.68;;;;;;;;;;5098362;28;20052;-82
2023/07/30 12:34:04;;;;;;;0.70;0.70;;;;;;;;;;5097854;28;20050;-81
2023/07/30 12:36:31;;;;;;;2.50;0.50;;;;;;;;;;5115306;28;20040;-84
2023/07/30 12:38:58;;;;;;;0.75;0.68;;;;;;;;;;5115215;28;20044;-83
2023/07/30 12:41:25;;;;;;;0.80;0.80;;;;;;;;;;5115384;28;20048;-82
2023/07/30 12:43:53;;;;;;;0.82;0.82;;;;;;;;;;5097320;28;20051;-82
2023/07/30 12:46:21;;;;;;;0.95;0.60;;;;;;;;;;5096633;28;20112;-84
2023/07/30 12:48:48;;;;;;;0.90;0.90;;;;;;;;;;5097334;28;20100;-83
2023/07/30 12:51:16;;;;;;;2.63;1.20;;;;;;;;;;5096525;28;20055;-81
2023/07/30 12:53:43;;;;;;;1.38;1.25;;;;;;;;;;5098537;28;20047;-82
2023/07/30 12:56:10;;;;;;;2.95;1.10;;;;;;;;;;5114988;28;20048;-85
2023/07/30 12:58:38;;;;;;;1.35;1.25;;;;;;;;;;5096715;28;20108;-80
2023/07/30 13:01:06;;;;;;;1.42;1.17;;;;;;;;;;5115293;28;20047;-83
2023/07/30 13:03:33;;;;;;;1.60;1.50;;;;;;;;;;5096280;28;20128;-83
2023/07/30 13:06:00;;;;;;;0.80;0.80;;;;;;;;;;5096166;28;20073;-81
2023/07/30 13:08:28;;;;;;;0.80;0.80;;;;;;;;;;5114606;28;20108;-83
2023/07/30 13:10:55;;;;;;;2.03;0.93;;;;;;;;;;5096676;28;20047;-82
2023/07/30 13:13:23;;;;;;;0.73;0.73;;;;;;;;;;5096395;28;20089;-82
2023/07/30 13:15:50;;;;;;;1.00;0.80;;;;;;;;;;5098384;28;20043;-83
2023/07/30 13:18:18;;;;;;;0.70;0.70;;;;;;;;;;5099213;28;20077;-84
2023/07/30 13:20:45;;;;;;;3.85;0.90;;;;;;;;;;5099681;28;20040;-82
2023/07/30 13:23:12;;;;;;;0.98;0.98;;;;;;;;;;5098152;28;20048;-81
2023/07/30 13:25:39;;;;;;;4.20;1.05;;;;;;;;;;5118571;28;20059;-81
2023/07/30 13:28:07;;;;;;;0.82;0.82;;;;;;;;;;5118092;28;20051;-84
2023/07/30 13:30:34;;;;;;;0.98;0.93;;;;;;;;;;5117153;28;20071;-82
2023/07/30 13:33:01;;;;;;;1.80;0.90;;;;;;;;;;5116825;28;20054;-81
2023/07/30 13:35:28;;;;;;;1.08;0.90;;;;;;;;;;5098765;28;20090;-85
2023/07/30 13:37:56;;;;;;;1.30;1.00;;;;;;;;;;5098487;28;20043;-83
2023/07/30 13:40:23;;;;;;;0.85;0.80;;;;;;;;;;5116207;28;20052;-82
2023/07/30 13:42:50;;;;;;;0.88;0.88;;;;;;;;;;5098636;28;20048;-83
2023/07/30 13:45:18;;;;;;;3.45;0.82;;;;;;;;;;5115808;28;20047;-82
2023/07/30 13:47:45;;;;;;;1.30;0.82;;;;;;;;;;5115434;28;20453;-82
2023/07/30 13:50:12;;;;;;;0.95;0.80;;;;;;;;;;5098587;28;20048;-82
2023/07/30 13:52:39;;;;;;;0.80;0.80;;;;;;;;;;5115595;28;20101;-81
2023/07/30 13:55:07;;;;;;;3.45;0.90;;;;;;;;;;5097461;28;20047;-82
2023/07/30 13:57:34;;;;;;;1.42;0.77;;;;;;;;;;5115137;28;20048;-82
2023/07/30 14:00:03;;;;;;;1.38;0.85;;;;;;;;;;5115441;28;20066;-82
2023/07/30 14:02:30;;;;;;;0.70;0.65;;;;;;;;;;5114541;28;20098;-83
2023/07/30 14:04:58;;;;;;;0.70;0.70;;;;;;;;;;5097233;28;20469;-83
2023/07/30 14:07:25;;;;;;;0.50;0.50;;;;;;;;;;5115813;28;20514;-79
2023/07/30 14:09:52;;;;;;;1.40;0.70;;;;;;;;;;5097690;28;20044;-83
2023/07/30 14:12:20;;;;;;;1.92;0.70;;;;;;;;;;5114886;28;20055;-82
2023/07/30 14:14:47;;;;;;;1.38;0.75;;;;;;;;;;5095250;28;20105;-84
2023/07/30 14:17:14;;;;;;;4.25;1.00;;;;;;;;;;5095645;28;20043;-81
2023/07/30 14:19:43;;;;;;;1.73;0.70;;;;;;;;;;5114216;28;20048;-80
2023/07/30 14:22:10;;;;;;;2.65;0.95;;;;;;;;;;5113952;28;20052;-81
2023/07/30 14:24:38;;;;;;;2.22;0.80;;;;;;;;;;5113614;28;20048;-78
2023/07/30 14:27:05;;;;;;;2.22;0.90;;;;;;;;;;5095103;28;20580;-82
2023/07/30 14:29:32;;;;;;;1.85;0.80;;;;;;;;;;5095650;28;20052;-80
2023/07/30 14:32:00;;;;;;;4.60;0.90;;;;;;;;;;5095950;28;20111;-83
2023/07/30 14:34:27;;;;;;;1.48;0.75;;;;;;;;;;5094894;28;20044;-82
2023/07/30 14:36:54;;;;;;;1.15;0.88;;;;;;;;;;5095632;28;20047;-80
2023/07/30 14:39:21;;;;;;;2.17;1.13;;;;;;;;;;5095084;28;20043;-81
2023/07/30 14:41:48;;;;;;;0.85;0.65;;;;;;;;;;5094937;28;20044;-81
2023/07/30 14:44:16;;;;;;;1.80;0.80;;;;;;;;;;5098063;28;20184;-81